^^
Station Historical Data
Daily Summary for August 7, 2021 Units:  English    Metric   Both
Daily Weekly Monthly Yearly
  High: Low: Average:
Temperature: 78.9 °F 70.5 °F 73.7 °F
Dew Point: 71 °F 66.1 °F 67.9 °F
Humidity: 87% 73% 82%
Wind Speed: 4mph 1mph 1.9mph
Wind Gust: 9mph - -
Wind- - SSE
Pressure: 29.96 in 29.89 in -
Precipitation: 0.00 in    
 
 
Tabular Data for August 7, 2021
Time Temperature Dew Point Pressure Wind Wind Speed Wind Gust Humidity Rainfall Rate (Hourly) solar
00:00 74.3 °F 68.4 °F 29.92 in NNE 2 mph 2 mph 82% 0.00 in 0 W/m2
00:05 74.1 °F 68.3 °F 29.92 in NE 2 mph 2 mph 82% 0.00 in 0 W/m2
00:10 73.9 °F 68.4 °F 29.92 in NNE 2 mph 2 mph 83% 0.00 in 0 W/m2
00:15 73.8 °F 68 °F 29.92 in NE 2 mph 3 mph 82% 0.00 in 0 W/m2
00:20 73.7 °F 68.2 °F 29.92 in NE 2 mph 2 mph 83% 0.00 in 0 W/m2
00:25 73.5 °F 68 °F 29.92 in NE 2 mph 2 mph 83% 0.00 in 0 W/m2
00:30 73.4 °F 67.9 °F 29.92 in NNE 2 mph 2 mph 83% 0.00 in 0 W/m2
00:35 73.4 °F 68.3 °F 29.92 in East 2 mph 2 mph 84% 0.00 in 0 W/m2
00:40 73.4 °F 67.9 °F 29.93 in East 2 mph 2 mph 83% 0.00 in 0 W/m2
00:45 73.5 °F 68 °F 29.93 in NW 2 mph 3 mph 83% 0.00 in 0 W/m2
00:50 73.3 °F 67.8 °F 29.93 in ENE 2 mph 2 mph 83% 0.00 in 0 W/m2
00:55 73.2 °F 67.4 °F 29.93 in East 2 mph 2 mph 82% 0.00 in 0 W/m2
01:00 73.1 °F 67.3 °F 29.93 in ESE 2 mph 2 mph 82% 0.00 in 0 W/m2
01:05 73.1 °F 67.3 °F 29.93 in SE 2 mph 2 mph 82% 0.00 in 0 W/m2
01:10 73.1 °F 67.6 °F 29.93 in NE 2 mph 2 mph 83% 0.00 in 0 W/m2
01:15 73 °F 67.5 °F 29.93 in SW 2 mph 2 mph 83% 0.00 in 0 W/m2
01:20 72.8 °F 67.3 °F 29.93 in East 2 mph 2 mph 83% 0.00 in 0 W/m2
01:25 72.8 °F 67.3 °F 29.93 in SE 2 mph 2 mph 83% 0.00 in 0 W/m2
01:30 72.8 °F 67.3 °F 29.93 in East 2 mph 2 mph 83% 0.00 in 0 W/m2
01:35 72.8 °F 67 °F 29.92 in South 2 mph 3 mph 82% 0.00 in 0 W/m2
01:40 72.9 °F 67.4 °F 29.93 in South 2 mph 5 mph 83% 0.00 in 0 W/m2
01:45 72.9 °F 67.4 °F 29.92 in ESE 2 mph 5 mph 83% 0.00 in 0 W/m2
01:50 72.8 °F 67.3 °F 29.92 in ESE 2 mph 2 mph 83% 0.00 in 0 W/m2
01:55 72.8 °F 67.3 °F 29.92 in SW 3 mph 6 mph 83% 0.00 in 0 W/m2
02:00 72.9 °F 67.4 °F 29.92 in WSW 3 mph 6 mph 83% 0.00 in 0 W/m2
02:05 72.9 °F 67.4 °F 29.92 in SW 3 mph 6 mph 83% 0.00 in 0 W/m2
02:10 72.9 °F 67.1 °F 29.92 in SSE 3 mph 3 mph 82% 0.00 in 0 W/m2
02:15 72.8 °F 66.6 °F 29.92 in SW 3 mph 3 mph 81% 0.00 in 0 W/m2
02:20 72.7 °F 66.5 °F 29.92 in SW 3 mph 3 mph 81% 0.00 in 0 W/m2
02:25 72.8 °F 66.6 °F 29.92 in SSW 3 mph 3 mph 81% 0.00 in 0 W/m2
02:30 72.7 °F 66.9 °F 29.92 in SW 3 mph 3 mph 82% 0.00 in 0 W/m2
02:35 72.7 °F 67.2 °F 29.92 in SSW 3 mph 3 mph 83% 0.00 in 0 W/m2
02:40 72.6 °F 66.8 °F 29.92 in SSW 3 mph 4 mph 82% 0.00 in 0 W/m2
02:45 72.4 °F 67.3 °F 29.91 in NNW 2 mph 4 mph 84% 0.00 in 0 W/m2
02:50 72 °F 66.9 °F 29.91 in NNE 2 mph 2 mph 84% 0.00 in 0 W/m2
02:55 71.6 °F 66.5 °F 29.91 in ENE 2 mph 3 mph 84% 0.00 in 0 W/m2
03:00 71.5 °F 66.8 °F 29.91 in NE 2 mph 2 mph 85% 0.00 in 0 W/m2
03:05 71.4 °F 66.3 °F 29.90 in East 2 mph 2 mph 84% 0.00 in 0 W/m2
03:10 71.3 °F 66.2 °F 29.90 in NE 2 mph 2 mph 84% 0.00 in 0 W/m2
03:15 71.2 °F 66.1 °F 29.90 in NE 2 mph 3 mph 84% 0.00 in 0 W/m2
03:20 71.1 °F 66.4 °F 29.90 in NE 2 mph 2 mph 85% 0.00 in 0 W/m2
03:25 71.1 °F 66.4 °F 29.91 in NNE 2 mph 2 mph 85% 0.00 in 0 W/m2
03:30 71.2 °F 66.8 °F 29.91 in NE 2 mph 2 mph 86% 0.00 in 0 W/m2
03:35 71.1 °F 66.4 °F 29.91 in NNE 2 mph 2 mph 85% 0.00 in 0 W/m2
03:40 71.2 °F 66.5 °F 29.91 in East 2 mph 2 mph 85% 0.00 in 0 W/m2
03:45 71.1 °F 66.7 °F 29.91 in South 2 mph 2 mph 86% 0.00 in 0 W/m2
03:50 70.9 °F 66.5 °F 29.91 in NNE 2 mph 2 mph 86% 0.00 in 0 W/m2
03:55 70.7 °F 66.6 °F 29.92 in NNE 2 mph 2 mph 87% 0.00 in 0 W/m2
04:00 70.7 °F 66.6 °F 29.92 in ENE 2 mph 2 mph 87% 0.00 in 0 W/m2
04:05 70.6 °F 66.2 °F 29.92 in SW 2 mph 2 mph 86% 0.00 in 0 W/m2
04:10 70.7 °F 66.3 °F 29.92 in NNE 1 mph 1 mph 86% 0.00 in 0 W/m2
04:15 70.7 °F 66.3 °F 29.92 in SW 1 mph 1 mph 86% 0.00 in 0 W/m2
04:20 70.7 °F 66.3 °F 29.92 in ENE 1 mph 2 mph 86% 0.00 in 0 W/m2
04:25 70.7 °F 66.3 °F 29.92 in East 1 mph 2 mph 86% 0.00 in 0 W/m2
04:30 70.6 °F 66.2 °F 29.92 in East 1 mph 1 mph 86% 0.00 in 0 W/m2
04:35 70.6 °F 66.5 °F 29.92 in West 1 mph 1 mph 87% 0.00 in 0 W/m2
04:40 70.5 °F 66.1 °F 29.92 in East 1 mph 1 mph 86% 0.00 in 0 W/m2
04:45 70.6 °F 66.5 °F 29.93 in NNW 1 mph 1 mph 87% 0.00 in 0 W/m2
04:50 70.6 °F 66.5 °F 29.93 in NNW 1 mph 1 mph 87% 0.00 in 0 W/m2
04:55 70.7 °F 66.6 °F 29.93 in East 1 mph 1 mph 87% 0.00 in 0 W/m2
05:00 70.6 °F 66.5 °F 29.93 in ESE 1 mph 1 mph 87% 0.00 in 0 W/m2
05:05 70.7 °F 66.6 °F 29.93 in WSW 1 mph 1 mph 87% 0.00 in 0 W/m2
05:10 70.8 °F 66.7 °F 29.93 in WSW 2 mph 2 mph 87% 0.00 in 0 W/m2
05:15 70.8 °F 66.4 °F 29.93 in West 3 mph 3 mph 86% 0.00 in 0 W/m2
05:20 70.9 °F 66.5 °F 29.93 in SW 3 mph 3 mph 86% 0.00 in 0 W/m2
05:25 71 °F 66.9 °F 29.93 in SW 4 mph 4 mph 87% 0.00 in 0 W/m2
05:30 71.1 °F 66.7 °F 29.93 in West 4 mph 4 mph 86% 0.00 in 0 W/m2
05:35 71.2 °F 67.1 °F 29.93 in South 3 mph 5 mph 87% 0.00 in 0 W/m2
05:40 71.3 °F 67.2 °F 29.93 in WSW 3 mph 3 mph 87% 0.00 in 0 W/m2
05:45 71.3 °F 67.2 °F 29.93 in NNE 3 mph 3 mph 87% 0.00 in 0 W/m2
05:50 71.4 °F 67.3 °F 29.92 in SW 3 mph 3 mph 87% 0.00 in 0 W/m2
05:55 71.3 °F 66.9 °F 29.92 in West 3 mph 3 mph 86% 0.00 in 0 W/m2
06:00 71.3 °F 66.9 °F 29.92 in SW 3 mph 5 mph 86% 0.00 in 0 W/m2
06:05 71.5 °F 67.4 °F 29.92 in South 3 mph 5 mph 87% 0.00 in 0 W/m2
06:10 71.3 °F 66.9 °F 29.92 in West 3 mph 3 mph 86% 0.00 in 0 W/m2
06:15 71.3 °F 66.9 °F 29.92 in WSW 3 mph 3 mph 86% 0.00 in 0 W/m2
06:20 71.4 °F 67 °F 29.92 in SW 3 mph 3 mph 86% 0.00 in 0 W/m2
06:25 71.4 °F 67 °F 29.92 in ENE 3 mph 3 mph 86% 0.00 in 0 W/m2
06:30 71.3 °F 66.9 °F 29.92 in SW 3 mph 3 mph 86% 0.00 in 0 W/m2
06:35 71.3 °F 67.2 °F 29.92 in NE 3 mph 3 mph 87% 0.00 in 5 W/m2
06:40 71.2 °F 67.1 °F 29.92 in West 2 mph 2 mph 87% 0.00 in 7 W/m2
06:45 71.2 °F 67.1 °F 29.92 in SSW 2 mph 2 mph 87% 0.00 in 9 W/m2
06:50 71.1 °F 67 °F 29.92 in South 2 mph 3 mph 87% 0.00 in 11 W/m2
06:55 71.1 °F 67 °F 29.92 in West 2 mph 3 mph 87% 0.00 in 12 W/m2
07:00 71 °F 66.9 °F 29.92 in WSW 2 mph 3 mph 87% 0.00 in 16 W/m2
07:05 71 °F 66.9 °F 29.92 in WSW 2 mph 3 mph 87% 0.00 in 18 W/m2
07:10 71 °F 66.9 °F 29.93 in SSE 2 mph 4 mph 87% 0.00 in 16 W/m2
07:15 71 °F 66.9 °F 29.93 in SSW 2 mph 4 mph 87% 0.00 in 19 W/m2
07:20 71 °F 66.9 °F 29.93 in North 2 mph 2 mph 87% 0.00 in 21 W/m2
07:25 70.9 °F 66.5 °F 29.92 in West 2 mph 2 mph 86% 0.00 in 25 W/m2
07:30 70.9 °F 66.5 °F 29.93 in East 2 mph 2 mph 86% 0.00 in 33 W/m2
07:35 70.9 °F 66.5 °F 29.93 in SSW 2 mph 3 mph 86% 0.00 in 44 W/m2
07:40 70.8 °F 66.4 °F 29.93 in WNW 2 mph 2 mph 86% 0.00 in 58 W/m2
07:45 70.8 °F 66.4 °F 29.93 in WNW 2 mph 3 mph 86% 0.00 in 77 W/m2
07:50 70.8 °F 66.4 °F 29.92 in SSW 2 mph 2 mph 86% 0.00 in 90 W/m2
07:55 70.8 °F 66.4 °F 29.92 in East 2 mph 2 mph 86% 0.00 in 100 W/m2
08:00 70.8 °F 66.4 °F 29.92 in NE 2 mph 2 mph 86% 0.00 in 93 W/m2
08:05 70.8 °F 66.4 °F 29.93 in SW 2 mph 2 mph 86% 0.00 in 90 W/m2
08:10 70.8 °F 66.4 °F 29.93 in SSE 2 mph 2 mph 86% 0.00 in 100 W/m2
08:15 70.8 °F 66.4 °F 29.93 in WNW 1 mph 2 mph 86% 0.00 in 109 W/m2
08:20 70.8 °F 66.4 °F 29.93 in SW 2 mph 2 mph 86% 0.00 in 100 W/m2
08:25 70.8 °F 66.4 °F 29.93 in WNW 2 mph 2 mph 86% 0.00 in 225 W/m2
08:30 70.9 °F 66.5 °F 29.93 in WSW 2 mph 2 mph 86% 0.00 in 125 W/m2
08:35 70.9 °F 66.5 °F 29.93 in SSW 2 mph 4 mph 86% 0.00 in 120 W/m2
08:40 71 °F 66.6 °F 29.93 in East 2 mph 2 mph 86% 0.00 in 171 W/m2
08:45 70.9 °F 66.5 °F 29.93 in West 2 mph 3 mph 86% 0.00 in 125 W/m2
08:50 71 °F 66.3 °F 29.93 in SSW 2 mph 2 mph 85% 0.00 in 125 W/m2
08:55 71 °F 66.6 °F 29.93 in SW 2 mph 2 mph 86% 0.00 in 102 W/m2
09:00 71 °F 66.6 °F 29.93 in SW 2 mph 2 mph 86% 0.00 in 118 W/m2
09:05 71 °F 66.6 °F 29.93 in South 2 mph 2 mph 86% 0.00 in 139 W/m2
09:10 71 °F 66.6 °F 29.94 in SW 2 mph 2 mph 86% 0.00 in 135 W/m2
09:15 71 °F 66.3 °F 29.93 in SW 2 mph 4 mph 85% 0.00 in 158 W/m2
09:20 71.1 °F 66.7 °F 29.94 in SE 2 mph 2 mph 86% 0.00 in 186 W/m2
09:25 71.1 °F 66.7 °F 29.93 in ENE 2 mph 2 mph 86% 0.00 in 278 W/m2
09:30 71.1 °F 66.4 °F 29.93 in ENE 2 mph 2 mph 85% 0.00 in 218 W/m2
09:35 71.2 °F 66.5 °F 29.93 in ESE 1 mph 2 mph 85% 0.00 in 346 W/m2
09:40 71.1 °F 66.4 °F 29.93 in SW 1 mph 1 mph 85% 0.00 in 171 W/m2
09:45 71.2 °F 66.5 °F 29.94 in SSW 1 mph 2 mph 85% 0.00 in 163 W/m2
09:50 71.3 °F 66.6 °F 29.94 in SW 2 mph 3 mph 85% 0.00 in 148 W/m2
09:55 71.3 °F 66.6 °F 29.94 in SSW 2 mph 5 mph 85% 0.00 in 135 W/m2
10:00 71.4 °F 67 °F 29.94 in WSW 2 mph 4 mph 86% 0.00 in 179 W/m2
10:05 71.5 °F 67.1 °F 29.94 in West 2 mph 4 mph 86% 0.00 in 151 W/m2
10:10 71.5 °F 67.1 °F 29.94 in South 2 mph 3 mph 86% 0.00 in 214 W/m2
10:15 71.5 °F 67.1 °F 29.94 in WSW 2 mph 6 mph 86% 0.00 in 202 W/m2
10:20 71.5 °F 67.1 °F 29.94 in SSW 3 mph 3 mph 86% 0.00 in 227 W/m2
10:25 71.6 °F 67.2 °F 29.95 in SE 2 mph 3 mph 86% 0.00 in 193 W/m2
10:30 71.6 °F 66.8 °F 29.95 in SW 2 mph 3 mph 85% 0.00 in 153 W/m2
10:35 71.5 °F 66.8 °F 29.94 in WSW 2 mph 3 mph 85% 0.00 in 165 W/m2
10:40 71.5 °F 66.8 °F 29.95 in NW 2 mph 2 mph 85% 0.00 in 186 W/m2
10:45 71.6 °F 66.8 °F 29.95 in WSW 2 mph 2 mph 85% 0.00 in 211 W/m2
10:50 71.5 °F 66.8 °F 29.96 in SSW 2 mph 2 mph 85% 0.00 in 288 W/m2
10:55 71.5 °F 67.1 °F 29.95 in SSW 2 mph 2 mph 86% 0.00 in 190 W/m2
11:00 71.6 °F 66.8 °F 29.95 in SW 2 mph 3 mph 85% 0.00 in 209 W/m2
11:05 71.7 °F 66.9 °F 29.95 in West 3 mph 4 mph 85% 0.00 in 199 W/m2
11:10 71.7 °F 66.9 °F 29.94 in SSW 3 mph 3 mph 85% 0.00 in 220 W/m2
11:15 71.8 °F 67 °F 29.94 in NE 2 mph 3 mph 85% 0.00 in 176 W/m2
11:20 71.8 °F 67 °F 29.95 in West 2 mph 3 mph 85% 0.00 in 135 W/m2
11:25 71.8 °F 66.7 °F 29.95 in South 3 mph 3 mph 84% 0.00 in 181 W/m2
11:30 71.8 °F 67 °F 29.96 in West 2 mph 2 mph 85% 0.00 in 160 W/m2
11:35 71.9 °F 67.1 °F 29.96 in West 2 mph 3 mph 85% 0.00 in 174 W/m2
11:40 71.9 °F 67.1 °F 29.96 in WSW 2 mph 3 mph 85% 0.00 in 151 W/m2
11:45 71.9 °F 67.1 °F 29.96 in East 2 mph 3 mph 85% 0.00 in 169 W/m2
11:50 72 °F 67.2 °F 29.96 in WNW 2 mph 2 mph 85% 0.00 in 199 W/m2
11:55 72 °F 67.2 °F 29.96 in SSW 2 mph 2 mph 85% 0.00 in 274 W/m2
12:00 72.1 °F 67.3 °F 29.96 in SE 2 mph 2 mph 85% 0.00 in 323 W/m2
12:05 72.2 °F 67.1 °F 29.95 in SSW 2 mph 2 mph 84% 0.00 in 360 W/m2
12:10 72.4 °F 67.3 °F 29.95 in SW 1 mph 2 mph 84% 0.00 in 357 W/m2
12:15 72.5 °F 67 °F 29.95 in South 1 mph 2 mph 83% 0.00 in 599 W/m2
12:20 72.7 °F 67.6 °F 29.94 in ENE 1 mph 1 mph 84% 0.00 in 330 W/m2
12:25 73 °F 67.9 °F 29.94 in NW 1 mph 1 mph 84% 0.00 in 904 W/m2
12:30 73.4 °F 67.6 °F 29.94 in East 1 mph 2 mph 82% 0.00 in 889 W/m2
12:35 73.8 °F 67.6 °F 29.94 in ENE 1 mph 2 mph 81% 0.00 in 775 W/m2
12:40 74.1 °F 67.9 °F 29.94 in ESE 1 mph 2 mph 81% 0.00 in 773 W/m2
12:45 73.9 °F 68.1 °F 29.93 in ESE 1 mph 2 mph 82% 0.00 in 679 W/m2
12:50 73.6 °F 67.8 °F 29.93 in SSW 1 mph 1 mph 82% 0.00 in 833 W/m2
12:55 74.1 °F 68.3 °F 29.93 in East 1 mph 1 mph 82% 0.00 in 768 W/m2
13:00 73.9 °F 67.3 °F 29.93 in East 1 mph 1 mph 80% 0.00 in 766 W/m2
13:05 74.2 °F 67.3 °F 29.93 in SW 1 mph 3 mph 79% 0.00 in 763 W/m2
13:10 73.9 °F 67.3 °F 29.93 in South 1 mph 2 mph 80% 0.00 in 773 W/m2
13:15 74.5 °F 69 °F 29.93 in South 2 mph 2 mph 83% 0.00 in 782 W/m2
13:20 74.5 °F 67.9 °F 29.93 in South 1 mph 3 mph 80% 0.00 in 828 W/m2
13:25 74.9 °F 68.3 °F 29.94 in West 2 mph 3 mph 80% 0.00 in 905 W/m2
13:30 75.3 °F 68.3 °F 29.93 in South 3 mph 3 mph 79% 0.00 in 473 W/m2
13:35 75.6 °F 68.6 °F 29.93 in SSE 3 mph 3 mph 79% 0.00 in 439 W/m2
13:40 74.9 °F 68.3 °F 29.93 in SSE 2 mph 4 mph 80% 0.00 in 837 W/m2
13:45 74.7 °F 68.1 °F 29.93 in SW 2 mph 4 mph 80% 0.00 in 664 W/m2
13:50 74.9 °F 68.3 °F 29.94 in WNW 4 mph 4 mph 80% 0.00 in 380 W/m2
13:55 75.1 °F 68.1 °F 29.93 in West 3 mph 4 mph 79% 0.00 in 844 W/m2
14:00 74.8 °F 67.8 °F 29.94 in NNE 3 mph 3 mph 79% 0.00 in 856 W/m2
14:05 74.8 °F 68.2 °F 29.94 in North 3 mph 3 mph 80% 0.00 in 759 W/m2
14:10 74.9 °F 67.9 °F 29.94 in SSW 3 mph 5 mph 79% 0.00 in 784 W/m2
14:15 75.1 °F 68.1 °F 29.94 in SW 3 mph 5 mph 79% 0.00 in 779 W/m2
14:20 75.1 °F 68.5 °F 29.94 in SW 3 mph 3 mph 80% 0.00 in 761 W/m2
14:25 75.2 °F 68.6 °F 29.94 in SE 3 mph 3 mph 80% 0.00 in 715 W/m2
14:30 75.3 °F 68 °F 29.94 in SE 3 mph 3 mph 78% 0.00 in 775 W/m2
14:35 75.3 °F 67.6 °F 29.94 in West 3 mph 3 mph 77% 0.00 in 752 W/m2
14:40 75.6 °F 68.6 °F 29.94 in West 2 mph 2 mph 79% 0.00 in 772 W/m2
14:45 75.8 °F 68.4 °F 29.94 in SSW 2 mph 3 mph 78% 0.00 in 772 W/m2
14:50 76 °F 68.6 °F 29.94 in SSW 3 mph 3 mph 78% 0.00 in 733 W/m2
14:55 76.2 °F 68.5 °F 29.94 in South 3 mph 3 mph 77% 0.00 in 733 W/m2
15:00 76.4 °F 68.3 °F 29.93 in NE 2 mph 2 mph 76% 0.00 in 752 W/m2
15:05 76.5 °F 68.4 °F 29.93 in SSE 2 mph 2 mph 76% 0.00 in 724 W/m2
15:10 76.5 °F 68.4 °F 29.93 in SSE 2 mph 2 mph 76% 0.00 in 738 W/m2
15:15 76.6 °F 68.5 °F 29.93 in WSW 2 mph 4 mph 76% 0.00 in 740 W/m2
15:20 76.6 °F 68.5 °F 29.93 in SSW 2 mph 4 mph 76% 0.00 in 731 W/m2
15:25 76.6 °F 68.5 °F 29.93 in South 2 mph 4 mph 76% 0.00 in 726 W/m2
15:30 76.7 °F 68.6 °F 29.93 in SE 2 mph 2 mph 76% 0.00 in 666 W/m2
15:35 76.7 °F 68.6 °F 29.93 in SE 2 mph 2 mph 76% 0.00 in 705 W/m2
15:40 76.7 °F 68.6 °F 29.92 in South 2 mph 2 mph 76% 0.00 in 698 W/m2
15:45 76.7 °F 68.6 °F 29.92 in SE 2 mph 2 mph 76% 0.00 in 696 W/m2
15:50 76.7 °F 68.6 °F 29.92 in West 2 mph 2 mph 76% 0.00 in 684 W/m2
15:55 76.7 °F 68.6 °F 29.91 in South 2 mph 2 mph 76% 0.00 in 691 W/m2
16:00 76.7 °F 68.2 °F 29.91 in South 2 mph 2 mph 75% 0.00 in 649 W/m2
16:05 76.8 °F 68.3 °F 29.91 in WSW 2 mph 2 mph 75% 0.00 in 675 W/m2
16:10 76.9 °F 68.8 °F 29.91 in SSW 1 mph 2 mph 76% 0.00 in 596 W/m2
16:15 76.9 °F 68.8 °F 29.91 in SW 2 mph 4 mph 76% 0.00 in 517 W/m2
16:20 76.9 °F 68.8 °F 29.91 in SE 2 mph 2 mph 76% 0.00 in 668 W/m2
16:25 77.1 °F 68.9 °F 29.91 in NW 2 mph 2 mph 76% 0.00 in 628 W/m2
16:30 77.3 °F 69.1 °F 29.90 in ESE 1 mph 1 mph 76% 0.00 in 643 W/m2
16:35 77.6 °F 69 °F 29.90 in SSW 1 mph 2 mph 75% 0.00 in 594 W/m2
16:40 77.8 °F 69.2 °F 29.90 in East 1 mph 1 mph 75% 0.00 in 599 W/m2
16:45 78 °F 69.4 °F 29.90 in East 1 mph 1 mph 75% 0.00 in 601 W/m2
16:50 78.2 °F 69.6 °F 29.90 in SW 1 mph 2 mph 75% 0.00 in 580 W/m2
16:55 78.5 °F 69.9 °F 29.89 in West 1 mph 2 mph 75% 0.00 in 455 W/m2
17:00 78.5 °F 69.5 °F 29.89 in SE 1 mph 1 mph 74% 0.00 in 540 W/m2
17:05 78.6 °F 69.6 °F 29.89 in SSW 1 mph 2 mph 74% 0.00 in 568 W/m2
17:10 78.6 °F 69.6 °F 29.89 in South 1 mph 2 mph 74% 0.00 in 487 W/m2
17:15 78.6 °F 70 °F 29.89 in NE 2 mph 2 mph 75% 0.00 in 496 W/m2
17:20 78.5 °F 69.5 °F 29.89 in SE 1 mph 1 mph 74% 0.00 in 466 W/m2
17:25 78.5 °F 69.9 °F 29.89 in NE 1 mph 1 mph 75% 0.00 in 506 W/m2
17:30 78.6 °F 69.6 °F 29.90 in WNW 1 mph 1 mph 74% 0.00 in 522 W/m2
17:35 78.7 °F 70.1 °F 29.89 in South 1 mph 2 mph 75% 0.00 in 510 W/m2
17:40 78.7 °F 70.1 °F 29.90 in SSW 1 mph 1 mph 75% 0.00 in 457 W/m2
17:45 78.6 °F 70 °F 29.90 in WSW 2 mph 3 mph 75% 0.00 in 199 W/m2
17:50 78.6 °F 69.6 °F 29.90 in SW 2 mph 2 mph 74% 0.00 in 202 W/m2
17:55 78.5 °F 69.5 °F 29.90 in SW 2 mph 2 mph 74% 0.00 in 186 W/m2
18:00 78.5 °F 69.9 °F 29.91 in South 1 mph 1 mph 75% 0.00 in 248 W/m2
18:05 78.5 °F 69.9 °F 29.91 in South 2 mph 3 mph 75% 0.00 in 443 W/m2
18:10 78.6 °F 70 °F 29.91 in North 2 mph 2 mph 75% 0.00 in 434 W/m2
18:15 78.7 °F 70.1 °F 29.91 in WNW 2 mph 2 mph 75% 0.00 in 394 W/m2
18:20 78.7 °F 69.3 °F 29.91 in SW 2 mph 2 mph 73% 0.00 in 359 W/m2
18:25 78.7 °F 70.1 °F 29.91 in West 1 mph 2 mph 75% 0.00 in 334 W/m2
18:30 78.9 °F 70.3 °F 29.91 in WNW 1 mph 1 mph 75% 0.00 in 292 W/m2
18:35 78.8 °F 70.2 °F 29.91 in SSW 1 mph 2 mph 75% 0.00 in 290 W/m2
18:40 78.7 °F 70.5 °F 29.91 in SE 1 mph 2 mph 76% 0.00 in 271 W/m2
18:45 78.6 °F 70 °F 29.91 in ENE 1 mph 2 mph 75% 0.00 in 253 W/m2
18:50 78.6 °F 70 °F 29.91 in East 1 mph 2 mph 75% 0.00 in 243 W/m2
18:55 78.5 °F 70.3 °F 29.91 in East 1 mph 2 mph 76% 0.00 in 223 W/m2
19:00 78.4 °F 70.6 °F 29.91 in ESE 1 mph 3 mph 77% 0.00 in 204 W/m2
19:05 78.2 °F 70 °F 29.91 in NNE 2 mph 3 mph 76% 0.00 in 202 W/m2
19:10 78.1 °F 69.9 °F 29.91 in ENE 2 mph 2 mph 76% 0.00 in 83 W/m2
19:15 78 °F 69.8 °F 29.91 in SSW 2 mph 2 mph 76% 0.00 in 90 W/m2
19:20 77.8 °F 70 °F 29.91 in NE 1 mph 1 mph 77% 0.00 in 156 W/m2
19:25 77.6 °F 69.8 °F 29.91 in ENE 1 mph 1 mph 77% 0.00 in 76 W/m2
19:30 77.4 °F 69.6 °F 29.92 in East 1 mph 1 mph 77% 0.00 in 65 W/m2
19:35 77.3 °F 69.5 °F 29.92 in ENE 1 mph 3 mph 77% 0.00 in 62 W/m2
19:40 77.1 °F 69.7 °F 29.92 in ESE 1 mph 2 mph 78% 0.00 in 67 W/m2
19:45 77 °F 69.6 °F 29.92 in ENE 2 mph 2 mph 78% 0.00 in 83 W/m2
19:50 76.9 °F 69.5 °F 29.92 in NNE 1 mph 1 mph 78% 0.00 in 49 W/m2
19:55 76.8 °F 69.4 °F 29.92 in ENE 1 mph 1 mph 78% 0.00 in 44 W/m2
20:00 76.7 °F 69.3 °F 29.92 in ENE 1 mph 1 mph 78% 0.00 in 39 W/m2
20:05 76.6 °F 69.6 °F 29.92 in East 1 mph 1 mph 79% 0.00 in 35 W/m2
20:10 76.6 °F 69.6 °F 29.91 in ENE 1 mph 1 mph 79% 0.00 in 28 W/m2
20:15 76.5 °F 69.9 °F 29.91 in East 1 mph 1 mph 80% 0.00 in 19 W/m2
20:20 76.4 °F 70.1 °F 29.91 in East 1 mph 1 mph 81% 0.00 in 12 W/m2
20:25 76.4 °F 70.1 °F 29.92 in NE 1 mph 1 mph 81% 0.00 in 11 W/m2
20:30 76.3 °F 70.4 °F 29.92 in NNW 1 mph 2 mph 82% 0.00 in 7 W/m2
20:35 76.1 °F 70.2 °F 29.91 in ENE 1 mph 2 mph 82% 0.00 in 5 W/m2
20:40 76 °F 70.5 °F 29.91 in North 1 mph 3 mph 83% 0.00 in 5 W/m2
20:45 75.9 °F 70.4 °F 29.91 in NNE 1 mph 3 mph 83% 0.00 in 0 W/m2
20:50 75.7 °F 70.5 °F 29.91 in North 2 mph 2 mph 84% 0.00 in 0 W/m2
20:55 75.6 °F 70.4 °F 29.91 in North 1 mph 2 mph 84% 0.00 in 0 W/m2
21:00 75.5 °F 70.7 °F 29.91 in NE 1 mph 2 mph 85% 0.00 in 0 W/m2
21:05 75.4 °F 70.6 °F 29.91 in NNE 1 mph 2 mph 85% 0.00 in 0 W/m2
21:10 75.2 °F 70.7 °F 29.91 in ENE 2 mph 2 mph 86% 0.00 in 0 W/m2
21:15 75.1 °F 70.6 °F 29.91 in ESE 2 mph 2 mph 86% 0.00 in 0 W/m2
21:20 75.1 °F 71 °F 29.91 in North 2 mph 2 mph 87% 0.00 in 0 W/m2
21:25 74.9 °F 70.8 °F 29.91 in ENE 2 mph 2 mph 87% 0.00 in 0 W/m2
21:30 74.8 °F 70.7 °F 29.91 in ESE 2 mph 2 mph 87% 0.00 in 0 W/m2
21:35 74.6 °F 70.1 °F 29.91 in ENE 2 mph 6 mph 86% 0.00 in 0 W/m2
21:40 74.4 °F 69.9 °F 29.91 in SE 2 mph 2 mph 86% 0.00 in 0 W/m2
21:45 74.3 °F 69.5 °F 29.91 in ENE 2 mph 3 mph 85% 0.00 in 0 W/m2
21:50 74.2 °F 69.4 °F 29.91 in East 2 mph 2 mph 85% 0.00 in 0 W/m2
21:55 74 °F 69.2 °F 29.91 in East 2 mph 2 mph 85% 0.00 in 0 W/m2
22:00 73.9 °F 69.1 °F 29.92 in East 2 mph 3 mph 85% 0.00 in 0 W/m2
22:05 73.8 °F 69 °F 29.92 in East 2 mph 3 mph 85% 0.00 in 0 W/m2
22:10 73.7 °F 68.9 °F 29.92 in East 2 mph 4 mph 85% 0.00 in 0 W/m2
22:15 73.6 °F 68.5 °F 29.92 in ESE 3 mph 4 mph 84% 0.00 in 0 W/m2
22:20 73.5 °F 68.4 °F 29.92 in ESE 3 mph 3 mph 84% 0.00 in 0 W/m2
22:25 73.4 °F 68.3 °F 29.92 in SE 3 mph 4 mph 84% 0.00 in 0 W/m2
22:30 73.3 °F 68.2 °F 29.92 in ESE 3 mph 9 mph 84% 0.00 in 0 W/m2
22:35 73.2 °F 68.4 °F 29.92 in ENE 3 mph 9 mph 85% 0.00 in 0 W/m2
22:40 73.1 °F 68.3 °F 29.92 in East 3 mph 4 mph 85% 0.00 in 0 W/m2
22:45 73 °F 68.2 °F 29.92 in ESE 3 mph 4 mph 85% 0.00 in 0 W/m2
Sand Point, Michigan, USA
Compliments of Weather Underground - 2 mb